createdAt,value
2017-08-25T00:00:12.221Z,5.9
2017-08-25T00:01:15.030Z,6
2017-08-25T00:02:17.817Z,6
2017-08-25T00:03:20.313Z,5.9
2017-08-25T00:04:22.767Z,5.9
2017-08-25T00:05:25.588Z,5.9
2017-08-25T00:06:28.050Z,6
2017-08-25T00:07:31.188Z,6
2017-08-25T00:08:33.647Z,6
2017-08-25T00:09:36.113Z,6
2017-08-25T00:10:38.560Z,5.9
2017-08-25T00:11:41.025Z,5.9
2017-08-25T00:12:43.490Z,5.9
2017-08-25T00:13:46.276Z,5.9
2017-08-25T00:14:48.738Z,5.9
2017-08-25T00:15:51.199Z,6
2017-08-25T00:16:53.759Z,5.9
2017-08-25T00:17:56.218Z,5.9
2017-08-25T00:18:58.668Z,5.9
2017-08-25T00:20:01.125Z,5.9
2017-08-25T00:21:03.949Z,5.9
2017-08-25T00:22:06.418Z,6
2017-08-25T00:23:08.879Z,5.9
2017-08-25T00:24:11.361Z,5.9
2017-08-25T00:25:13.813Z,5.9
2017-08-25T00:26:16.266Z,6
2017-08-25T00:27:18.728Z,5.9
2017-08-25T00:28:21.182Z,5.9
2017-08-25T00:29:23.656Z,5.9
2017-08-25T00:30:26.112Z,5.9
2017-08-25T00:31:28.561Z,6
2017-08-25T00:32:31.386Z,5.9
2017-08-25T00:33:33.841Z,5.9
2017-08-25T00:34:36.970Z,5.9
2017-08-25T00:35:39.428Z,5.9
2017-08-25T00:36:41.877Z,5.9
2017-08-25T00:37:44.339Z,5.9
2017-08-25T00:38:46.799Z,5.9
2017-08-25T00:39:49.247Z,5.9
2017-08-25T00:40:51.718Z,5.9
2017-08-25T00:41:54.184Z,6
2017-08-25T00:42:56.976Z,5.9
2017-08-25T00:43:59.436Z,5.9
2017-08-25T00:45:01.877Z,5.9
2017-08-25T00:46:04.329Z,5.9
2017-08-25T00:47:06.794Z,5.9
2017-08-25T00:48:09.240Z,5.9
2017-08-25T00:49:11.702Z,5.9
2017-08-25T00:50:14.160Z,5.9
2017-08-25T00:51:16.629Z,5.9
2017-08-25T00:52:19.103Z,5.9
2017-08-25T00:53:21.563Z,5.9
2017-08-25T00:54:24.007Z,5.9
2017-08-25T00:55:26.493Z,5.9
2017-08-25T00:56:28.946Z,5.9
2017-08-25T00:57:31.736Z,5.9
2017-08-25T00:58:34.189Z,5.9
2017-08-25T00:59:36.652Z,5.9
2017-08-25T01:00:39.441Z,5.9
2017-08-25T01:01:42.575Z,5.9
2017-08-25T01:02:45.383Z,5.9
2017-08-25T01:03:47.835Z,5.9
2017-08-25T01:04:50.294Z,5.9
2017-08-25T01:05:52.756Z,5.9
2017-08-25T01:06:55.207Z,5.9
2017-08-25T01:07:58.035Z,5.9
2017-08-25T01:09:00.494Z,5.9
2017-08-25T01:10:02.941Z,5.9
2017-08-25T01:11:05.733Z,5.9
2017-08-25T01:12:08.183Z,5.9
2017-08-25T01:13:10.632Z,5.8
2017-08-25T01:14:13.089Z,5.9
2017-08-25T01:15:15.542Z,5.9
2017-08-25T01:16:17.997Z,5.9
2017-08-25T01:17:21.131Z,5.9
2017-08-25T01:18:23.582Z,5.9
2017-08-25T01:19:26.041Z,5.8
2017-08-25T01:20:28.502Z,5.9
2017-08-25T01:21:30.952Z,5.8
2017-08-25T01:22:33.410Z,5.9
2017-08-25T01:23:35.854Z,5.8
2017-08-25T01:24:38.658Z,5.8
2017-08-25T01:25:41.109Z,5.9
2017-08-25T01:26:43.568Z,5.8
2017-08-25T01:27:46.026Z,5.8
2017-08-25T01:28:48.486Z,5.8
2017-08-25T01:29:50.929Z,5.8
2017-08-25T01:30:53.385Z,5.8
2017-08-25T01:31:55.835Z,5.8
2017-08-25T01:32:58.300Z,5.8
2017-08-25T01:34:00.744Z,5.9
2017-08-25T01:35:03.189Z,5.9
2017-08-25T01:36:05.652Z,5.9
2017-08-25T01:37:08.110Z,5.8
2017-08-25T01:38:10.564Z,5.8
2017-08-25T01:39:13.014Z,5.8
2017-08-25T01:40:15.472Z,5.9
2017-08-25T01:41:17.919Z,5.9
2017-08-25T01:42:20.379Z,5.8
2017-08-25T01:43:22.837Z,5.8
2017-08-25T01:44:25.279Z,5.8
2017-08-25T01:45:27.726Z,5.9
2017-08-25T01:46:30.547Z,5.8
2017-08-25T01:47:33.346Z,5.8
2017-08-25T01:48:35.797Z,5.8
2017-08-25T01:49:38.248Z,5.8
2017-08-25T01:50:40.699Z,5.9
2017-08-25T01:51:43.507Z,5.9
2017-08-25T01:52:45.963Z,5.9
2017-08-25T01:53:48.418Z,5.9
2017-08-25T01:54:50.865Z,5.9
2017-08-25T01:55:53.321Z,5.8
2017-08-25T01:56:55.769Z,5.9
2017-08-25T01:57:58.234Z,5.9
2017-08-25T01:59:00.683Z,5.8
2017-08-25T02:00:03.145Z,5.9
2017-08-25T02:01:05.597Z,5.8
2017-08-25T02:02:08.047Z,5.9
2017-08-25T02:03:10.503Z,5.9
2017-08-25T02:04:12.957Z,5.9
2017-08-25T02:05:15.408Z,5.8
2017-08-25T02:06:17.858Z,5.9
2017-08-25T02:07:20.313Z,5.9
2017-08-25T02:08:23.111Z,5.9
2017-08-25T02:09:25.555Z,5.8
2017-08-25T02:10:28.015Z,5.9
2017-08-25T02:11:30.467Z,5.9
2017-08-25T02:12:33.291Z,5.8
2017-08-25T02:13:36.084Z,5.8
2017-08-25T02:14:38.532Z,5.8
2017-08-25T02:15:41.335Z,5.8
2017-08-25T02:16:43.796Z,5.8
2017-08-25T02:17:46.247Z,5.8
2017-08-25T02:18:48.705Z,5.8
2017-08-25T02:19:51.163Z,5.9
2017-08-25T02:20:53.617Z,5.8
2017-08-25T02:21:56.075Z,5.9
2017-08-25T02:22:58.531Z,5.9
2017-08-25T02:24:00.987Z,5.9
2017-08-25T02:25:03.437Z,5.8
2017-08-25T02:26:05.896Z,5.9
2017-08-25T02:27:08.352Z,5.9
2017-08-25T02:28:10.800Z,5.9
2017-08-25T02:29:13.249Z,5.8
2017-08-25T02:30:15.709Z,5.9
2017-08-25T02:31:18.147Z,5.9
2017-08-25T02:32:20.620Z,5.9
2017-08-25T02:33:23.063Z,5.8
2017-08-25T02:34:25.869Z,5.8
2017-08-25T02:35:28.872Z,5.9
2017-08-25T02:36:31.675Z,5.9
2017-08-25T02:37:34.130Z,5.8
2017-08-25T02:38:36.588Z,5.8
2017-08-25T02:39:39.030Z,5.8
2017-08-25T02:40:41.837Z,5.8
2017-08-25T02:41:44.293Z,5.8
2017-08-25T02:42:46.741Z,5.9
2017-08-25T02:43:49.184Z,5.9
2017-08-25T02:44:51.646Z,5.9
2017-08-25T02:45:54.811Z,5.8
2017-08-25T02:46:57.275Z,5.8
2017-08-25T02:47:59.737Z,5.8
2017-08-25T02:49:02.187Z,5.8
2017-08-25T02:50:04.990Z,5.9
2017-08-25T02:51:07.450Z,5.9
2017-08-25T02:52:10.244Z,5.8
2017-08-25T02:53:13.049Z,5.9
2017-08-25T02:54:15.500Z,5.8
2017-08-25T02:55:17.963Z,5.8
2017-08-25T02:56:20.751Z,5.8
2017-08-25T02:57:23.204Z,5.8
2017-08-25T02:58:25.665Z,5.9
2017-08-25T02:59:28.456Z,5.8
2017-08-25T03:00:30.912Z,5.9
2017-08-25T03:01:33.368Z,5.9
2017-08-25T03:02:35.864Z,5.8
2017-08-25T03:03:38.316Z,5.8
2017-08-25T03:04:40.793Z,5.8
2017-08-25T03:05:43.236Z,5.8
2017-08-25T03:06:45.693Z,5.8
2017-08-25T03:07:48.152Z,5.9
2017-08-25T03:08:50.605Z,5.9
2017-08-25T03:09:53.407Z,5.8
2017-08-25T03:10:55.864Z,5.8
2017-08-25T03:11:58.680Z,5.8
2017-08-25T03:13:01.136Z,5.9
2017-08-25T03:14:03.591Z,5.8
2017-08-25T03:15:06.033Z,5.8
2017-08-25T03:16:08.836Z,5.8
2017-08-25T03:17:11.328Z,5.9
2017-08-25T03:18:13.778Z,6.1
2017-08-25T03:19:16.239Z,5.9
2017-08-25T03:20:18.734Z,5.9
2017-08-25T03:21:21.183Z,5.9
2017-08-25T03:22:23.693Z,5.8
2017-08-25T03:23:26.139Z,5.8
2017-08-25T03:24:28.619Z,5.8
2017-08-25T03:25:31.420Z,5.8
2017-08-25T03:26:33.877Z,5.8
2017-08-25T03:27:36.327Z,5.8
2017-08-25T03:28:39.121Z,5.8
2017-08-25T03:29:41.591Z,5.8
2017-08-25T03:30:44.059Z,5.8
2017-08-25T03:31:46.554Z,5.8
2017-08-25T03:32:49.007Z,5.8
2017-08-25T03:33:51.458Z,5.8
2017-08-25T03:34:53.961Z,5.9
2017-08-25T03:35:56.412Z,5.8
2017-08-25T03:36:58.918Z,5.8
2017-08-25T03:38:01.368Z,5.8
2017-08-25T03:39:03.826Z,5.8
2017-08-25T03:40:06.966Z,5.8
2017-08-25T03:41:09.756Z,5.8
2017-08-25T03:42:12.216Z,5.8
2017-08-25T03:43:14.665Z,5.8
2017-08-25T03:44:17.136Z,5.8
2017-08-25T03:45:19.939Z,5.9
2017-08-25T03:46:22.395Z,5.8
2017-08-25T03:47:24.888Z,5.8
2017-08-25T03:48:27.348Z,5.8
2017-08-25T03:49:29.829Z,5.8
2017-08-25T03:50:32.277Z,5.8
2017-08-25T03:51:34.780Z,5.8
2017-08-25T03:52:37.234Z,5.8
2017-08-25T03:53:39.681Z,5.8
2017-08-25T03:54:42.177Z,5.8
2017-08-25T03:55:44.647Z,5.8
2017-08-25T03:56:47.138Z,5.9
2017-08-25T03:57:49.585Z,5.8
2017-08-25T03:58:52.047Z,5.8
2017-08-25T03:59:54.497Z,5.8
2017-08-25T04:00:56.951Z,5.8
2017-08-25T04:01:59.766Z,5.8
2017-08-25T04:03:02.212Z,5.8
2017-08-25T04:04:04.666Z,5.8
2017-08-25T04:05:07.176Z,5.8
2017-08-25T04:06:09.626Z,5.7
2017-08-25T04:07:12.131Z,5.8
2017-08-25T04:08:14.592Z,5.8
2017-08-25T04:09:17.385Z,5.8
2017-08-25T04:10:19.842Z,5.7
2017-08-25T04:11:22.299Z,5.8
2017-08-25T04:12:24.740Z,5.8
2017-08-25T04:13:27.201Z,5.8
2017-08-25T04:14:29.679Z,5.8
2017-08-25T04:15:32.129Z,5.8
2017-08-25T04:16:34.590Z,5.8
2017-08-25T04:17:37.388Z,5.8
2017-08-25T04:18:39.839Z,5.8
2017-08-25T04:19:42.335Z,5.8
2017-08-25T04:20:44.788Z,5.8
2017-08-25T04:21:47.271Z,5.8
2017-08-25T04:22:49.729Z,5.8
2017-08-25T04:23:52.182Z,5.8
2017-08-25T04:24:54.977Z,5.8
2017-08-25T04:25:57.427Z,5.8
2017-08-25T04:26:59.904Z,5.8
2017-08-25T04:28:02.730Z,5.7
2017-08-25T04:29:05.215Z,5.8
2017-08-25T04:30:08.019Z,5.8
2017-08-25T04:31:10.469Z,5.8
2017-08-25T04:32:13.319Z,5.8
2017-08-25T04:33:15.780Z,5.8
2017-08-25T04:34:18.275Z,5.8
2017-08-25T04:35:20.724Z,5.8
2017-08-25T04:36:23.234Z,5.8
2017-08-25T04:37:26.029Z,5.7
2017-08-25T04:38:28.476Z,5.7
2017-08-25T04:39:30.938Z,5.8
2017-08-25T04:40:33.385Z,5.8
2017-08-25T04:41:36.190Z,5.7
2017-08-25T04:42:38.643Z,5.8
2017-08-25T04:43:41.473Z,5.8
2017-08-25T04:44:43.917Z,5.8
2017-08-25T04:45:46.374Z,5.8
2017-08-25T04:46:48.818Z,5.8
2017-08-25T04:47:51.621Z,5.7
2017-08-25T04:48:54.072Z,5.7
2017-08-25T04:49:56.522Z,5.7
2017-08-25T04:50:59.025Z,5.7
2017-08-25T04:52:01.494Z,5.7
2017-08-25T04:53:03.937Z,5.7
2017-08-25T04:54:06.444Z,5.8
2017-08-25T04:55:09.264Z,5.8
2017-08-25T04:56:11.747Z,5.9
2017-08-25T04:57:14.197Z,5.8
2017-08-25T04:58:16.648Z,5.8
2017-08-25T04:59:19.101Z,5.8
2017-08-25T05:00:21.556Z,5.8
2017-08-25T05:01:24.060Z,5.8
2017-08-25T05:02:26.538Z,5.7
2017-08-25T05:03:29.002Z,5.8
2017-08-25T05:04:31.457Z,5.8
2017-08-25T05:05:33.916Z,5.8
2017-08-25T05:06:36.365Z,5.8
2017-08-25T05:07:38.816Z,5.8
2017-08-25T05:08:41.356Z,5.8
2017-08-25T05:09:44.577Z,5.8
2017-08-25T05:10:47.030Z,5.8
2017-08-25T05:11:49.820Z,5.8
2017-08-25T05:12:52.269Z,5.8
2017-08-25T05:13:54.733Z,5.8
2017-08-25T05:14:57.220Z,5.8
2017-08-25T05:15:59.667Z,5.8
2017-08-25T05:17:02.124Z,5.8
2017-08-25T05:18:04.576Z,5.8
2017-08-25T05:19:07.033Z,5.8
2017-08-25T05:20:09.557Z,5.9
2017-08-25T05:21:11.993Z,5.8
2017-08-25T05:22:14.450Z,5.8
2017-08-25T05:23:16.905Z,5.8
2017-08-25T05:24:19.357Z,5.8
2017-08-25T05:25:21.852Z,5.9
2017-08-25T05:26:24.302Z,5.8
2017-08-25T05:27:26.765Z,5.8
2017-08-25T05:28:29.208Z,5.8
2017-08-25T05:29:31.675Z,5.9
2017-08-25T05:30:34.148Z,5.8
2017-08-25T05:31:36.653Z,5.8
2017-08-25T05:32:39.109Z,5.8
2017-08-25T05:33:41.562Z,5.8
2017-08-25T05:34:44.009Z,5.9
2017-08-25T05:35:46.468Z,5.8
2017-08-25T05:36:48.968Z,5.9
2017-08-25T05:37:51.424Z,5.9
2017-08-25T05:38:53.879Z,5.9
2017-08-25T05:39:56.321Z,5.9
2017-08-25T05:40:58.778Z,5.9
2017-08-25T05:42:01.342Z,5.9
2017-08-25T05:43:03.787Z,5.9
2017-08-25T05:44:06.245Z,5.8
2017-08-25T05:45:08.700Z,5.9
2017-08-25T05:46:11.155Z,5.9
2017-08-25T05:47:13.662Z,5.9
2017-08-25T05:48:16.125Z,5.9
2017-08-25T05:49:18.923Z,5.8
2017-08-25T05:50:21.378Z,5.9
2017-08-25T05:51:23.841Z,5.9
2017-08-25T05:52:26.294Z,5.9
2017-08-25T05:53:28.787Z,5.9
2017-08-25T05:54:31.242Z,5.9
2017-08-25T05:55:33.697Z,5.9
2017-08-25T05:56:36.492Z,5.9
2017-08-25T05:57:38.954Z,5.9
2017-08-25T05:58:41.779Z,5.9
2017-08-25T05:59:44.234Z,5.9
2017-08-25T06:00:46.697Z,6
2017-08-25T06:01:49.150Z,5.9
2017-08-25T06:02:51.598Z,6
2017-08-25T06:03:54.502Z,5.9
2017-08-25T06:04:56.996Z,5.9
2017-08-25T06:05:59.449Z,5.9
2017-08-25T06:07:01.907Z,5.9
2017-08-25T06:08:04.376Z,5.9
2017-08-25T06:09:07.511Z,5.9
2017-08-25T06:10:10.013Z,6
2017-08-25T06:11:12.497Z,6
2017-08-25T06:12:14.998Z,5.9
2017-08-25T06:13:17.458Z,6
2017-08-25T06:14:19.910Z,6
2017-08-25T06:15:22.365Z,6
2017-08-25T06:16:24.836Z,6
2017-08-25T06:17:27.291Z,5.9
2017-08-25T06:18:29.756Z,6
2017-08-25T06:19:32.207Z,6
2017-08-25T06:20:34.668Z,6
2017-08-25T06:21:37.546Z,6
2017-08-25T06:22:39.996Z,6
2017-08-25T06:23:42.456Z,6
2017-08-25T06:24:44.910Z,6.1
2017-08-25T06:25:47.706Z,6
2017-08-25T06:26:50.522Z,6
2017-08-25T06:27:53.385Z,6.1
2017-08-25T06:28:55.852Z,6.1
2017-08-25T06:29:58.305Z,6.1
2017-08-25T06:31:00.763Z,6
2017-08-25T06:32:03.216Z,6
2017-08-25T06:33:05.757Z,6.1
2017-08-25T06:34:08.213Z,6
2017-08-25T06:35:10.691Z,6
2017-08-25T06:36:13.134Z,6.1
2017-08-25T06:37:15.935Z,6.1
2017-08-25T06:38:18.385Z,6.1
2017-08-25T06:39:20.939Z,6.1
2017-08-25T06:40:23.390Z,6.1
2017-08-25T06:41:25.843Z,6.1
2017-08-25T06:42:28.296Z,6.1
2017-08-25T06:43:30.761Z,6.1
2017-08-25T06:44:33.622Z,6.1
2017-08-25T06:45:36.085Z,6.1
2017-08-25T06:46:38.538Z,6.1
2017-08-25T06:47:40.991Z,6.1
2017-08-25T06:48:43.456Z,6.1
2017-08-25T06:49:45.966Z,6.1
2017-08-25T06:50:48.424Z,6.1
2017-08-25T06:51:51.226Z,6.1
2017-08-25T06:52:53.685Z,6.1
2017-08-25T06:53:56.149Z,6.1
2017-08-25T06:54:58.948Z,6.1
2017-08-25T06:56:01.450Z,6.1
2017-08-25T06:57:03.903Z,6.1
2017-08-25T06:58:06.353Z,6.2
2017-08-25T06:59:08.813Z,6.1
2017-08-25T07:00:11.260Z,6.1
2017-08-25T07:01:13.756Z,6.1
2017-08-25T07:02:16.219Z,6.1
2017-08-25T07:03:18.675Z,6.1
2017-08-25T07:04:21.129Z,6.2
2017-08-25T07:05:23.596Z,6.2
2017-08-25T07:06:26.730Z,6.1
2017-08-25T07:07:29.228Z,6.2
2017-08-25T07:08:31.689Z,6.1
2017-08-25T07:09:34.147Z,6.1
2017-08-25T07:10:36.717Z,6.2
2017-08-25T07:11:39.181Z,6.2
2017-08-25T07:12:41.632Z,6.2
2017-08-25T07:13:44.093Z,6.2
2017-08-25T07:14:47.062Z,6.1
2017-08-25T07:15:49.580Z,6.1
2017-08-25T07:16:52.235Z,6.1
2017-08-25T07:17:54.717Z,6.1
2017-08-25T07:18:57.352Z,6.2
2017-08-25T07:19:59.815Z,6.2
2017-08-25T07:21:02.272Z,6.2
2017-08-25T07:22:04.737Z,6.1
2017-08-25T07:23:07.193Z,6.2
2017-08-25T07:24:09.652Z,6.2
2017-08-25T07:25:12.104Z,6.2
2017-08-25T07:26:14.903Z,6.2
2017-08-25T07:27:17.369Z,6.2
2017-08-25T07:28:19.825Z,6.2
2017-08-25T07:29:22.244Z,6.2
2017-08-25T07:30:24.656Z,6.2
2017-08-25T07:31:27.083Z,6.2
2017-08-25T07:32:29.523Z,6.2
2017-08-25T07:33:31.946Z,6.2
2017-08-25T07:34:34.391Z,6.2
2017-08-25T07:35:36.950Z,6.3
2017-08-25T07:36:40.193Z,6.2
2017-08-25T07:37:42.705Z,6.3
2017-08-25T07:38:45.151Z,6.3
2017-08-25T07:39:47.586Z,6.3
2017-08-25T07:40:50.056Z,6.3
2017-08-25T07:41:52.525Z,6.3
2017-08-25T07:42:55.017Z,6.4
2017-08-25T07:43:57.456Z,6.4
2017-08-25T07:44:59.906Z,6.3
2017-08-25T07:46:02.384Z,6.4
2017-08-25T07:47:04.847Z,6.4
2017-08-25T07:48:07.308Z,6.4
2017-08-25T07:49:09.763Z,6.4
2017-08-25T07:50:12.189Z,6.4
2017-08-25T07:51:14.638Z,6.4
2017-08-25T07:52:17.087Z,6.4
2017-08-25T07:53:19.562Z,6.4
2017-08-25T07:54:21.986Z,6.4
2017-08-25T07:55:24.406Z,6.4
2017-08-25T07:56:26.850Z,6.4
2017-08-25T07:57:29.638Z,6.4
2017-08-25T07:58:32.097Z,6.4
2017-08-25T07:59:34.878Z,6.4
2017-08-25T08:00:37.298Z,6.3
2017-08-25T08:01:40.482Z,6.3
2017-08-25T08:02:42.903Z,6.3
2017-08-25T08:03:45.375Z,6.3
2017-08-25T08:04:47.837Z,6.3
2017-08-25T08:05:50.269Z,6.4
2017-08-25T08:06:52.693Z,6.3
2017-08-25T08:07:55.113Z,6.4
2017-08-25T08:08:57.541Z,6.3
2017-08-25T08:09:59.962Z,6.3
2017-08-25T08:11:02.410Z,6.3
2017-08-25T08:12:04.870Z,6.4
2017-08-25T08:13:07.296Z,6.3
2017-08-25T08:14:09.770Z,6.3
2017-08-25T08:15:12.200Z,6.3
2017-08-25T08:16:14.620Z,6.3
2017-08-25T08:17:17.057Z,6.3
2017-08-25T08:18:19.868Z,6.3
2017-08-25T08:19:22.330Z,6.3
2017-08-25T08:20:24.794Z,6.3
2017-08-25T08:21:27.587Z,6.4
2017-08-25T08:22:30.107Z,6.3
2017-08-25T08:23:32.515Z,6.4
2017-08-25T08:24:34.930Z,6.4
2017-08-25T08:25:37.392Z,6.4
2017-08-25T08:26:39.853Z,6.4
2017-08-25T08:27:42.651Z,6.4
2017-08-25T08:28:45.116Z,6.4
2017-08-25T08:29:47.537Z,6.4
2017-08-25T08:30:49.946Z,6.4
2017-08-25T08:31:52.391Z,6.4
2017-08-25T08:32:54.840Z,6.4
2017-08-25T08:33:57.247Z,6.4
2017-08-25T08:34:59.672Z,6.4
2017-08-25T08:36:02.110Z,6.4
2017-08-25T08:37:04.519Z,6.4
2017-08-25T08:38:06.931Z,6.5
2017-08-25T08:39:09.337Z,6.4
2017-08-25T08:40:11.781Z,6.5
2017-08-25T08:41:14.273Z,6.4
2017-08-25T08:42:16.692Z,6.5
2017-08-25T08:43:19.106Z,6.5
2017-08-25T08:44:21.510Z,6.4
2017-08-25T08:45:23.940Z,6.5
2017-08-25T08:46:26.403Z,6.5
2017-08-25T08:47:28.809Z,6.5
2017-08-25T08:48:31.258Z,6.5
2017-08-25T08:49:33.670Z,6.5
2017-08-25T08:50:36.086Z,6.5
2017-08-25T08:51:38.534Z,6.5
2017-08-25T08:52:41.290Z,6.4
2017-08-25T08:53:43.697Z,6.4
2017-08-25T08:54:46.156Z,6.5
2017-08-25T08:55:48.565Z,6.5
2017-08-25T08:56:51.015Z,6.5
2017-08-25T08:57:53.493Z,6.5
2017-08-25T08:58:55.914Z,6.5
2017-08-25T08:59:58.342Z,6.5
2017-08-25T09:01:00.754Z,6.5
2017-08-25T09:02:03.234Z,6.6
2017-08-25T09:03:05.721Z,6.6
2017-08-25T09:04:08.498Z,6.5
2017-08-25T09:05:11.486Z,6.5
2017-08-25T09:06:13.888Z,6.5
2017-08-25T09:07:16.353Z,6.6
2017-08-25T09:08:18.769Z,6.5
2017-08-25T09:09:21.191Z,6.5
2017-08-25T09:10:23.764Z,6.5
2017-08-25T09:11:26.186Z,6.5
2017-08-25T09:12:28.683Z,6.5
2017-08-25T09:13:31.575Z,6.5
2017-08-25T09:14:33.985Z,6.6
2017-08-25T09:15:36.536Z,6.5
2017-08-25T09:16:38.948Z,6.5
2017-08-25T09:17:41.367Z,6.5
2017-08-25T09:18:43.833Z,6.5
2017-08-25T09:19:46.262Z,6.5
2017-08-25T09:20:48.800Z,6.5
2017-08-25T09:21:51.249Z,6.5
2017-08-25T09:22:53.686Z,6.5
2017-08-25T09:23:56.298Z,6.5
2017-08-25T09:24:58.703Z,6.5
2017-08-25T09:26:01.190Z,6.5
2017-08-25T09:27:03.987Z,6.5
2017-08-25T09:28:06.777Z,6.5
2017-08-25T09:29:09.219Z,6.5
2017-08-25T09:30:11.622Z,6.6
2017-08-25T09:31:14.040Z,6.5
2017-08-25T09:32:16.803Z,6.6
2017-08-25T09:33:19.211Z,6.6
2017-08-25T09:34:21.622Z,6.5
2017-08-25T09:35:24.040Z,6.6
2017-08-25T09:36:26.451Z,6.6
2017-08-25T09:37:28.869Z,6.6
2017-08-25T09:38:31.284Z,6.6
2017-08-25T09:39:33.694Z,6.6
2017-08-25T09:40:36.434Z,6.7
2017-08-25T09:41:38.848Z,6.7
2017-08-25T09:42:41.258Z,6.6
2017-08-25T09:43:43.751Z,6.7
2017-08-25T09:44:46.228Z,6.6
2017-08-25T09:45:48.705Z,6.7
2017-08-25T09:46:51.111Z,6.6
2017-08-25T09:47:53.536Z,6.7
2017-08-25T09:48:55.946Z,6.6
2017-08-25T09:49:58.358Z,6.6
2017-08-25T09:51:00.772Z,6.6
2017-08-25T09:52:03.192Z,6.7
2017-08-25T09:53:05.606Z,6.7
2017-08-25T09:54:08.022Z,6.7
2017-08-25T09:55:10.434Z,6.7
2017-08-25T09:56:12.843Z,6.8
2017-08-25T09:57:15.257Z,6.7
2017-08-25T09:58:17.687Z,6.7
2017-08-25T09:59:20.521Z,6.7
2017-08-25T10:00:23.008Z,6.7
2017-08-25T10:01:25.488Z,6.8
2017-08-25T10:02:27.906Z,6.8
2017-08-25T10:03:30.347Z,6.8
2017-08-25T10:04:32.749Z,6.8
2017-08-25T10:05:35.168Z,6.9
2017-08-25T10:06:37.613Z,6.8
2017-08-25T10:07:40.095Z,6.8
2017-08-25T10:08:42.519Z,6.8
2017-08-25T10:09:44.936Z,6.8
2017-08-25T10:10:47.355Z,6.8
2017-08-25T10:11:49.782Z,6.8
2017-08-25T10:12:52.208Z,6.8
2017-08-25T10:13:54.610Z,6.8
2017-08-25T10:14:57.028Z,6.8
2017-08-25T10:15:59.449Z,6.8
2017-08-25T10:17:01.864Z,6.8
2017-08-25T10:18:04.280Z,6.8
2017-08-25T10:19:06.693Z,6.8
2017-08-25T10:20:09.534Z,6.8
2017-08-25T10:21:11.948Z,6.8
2017-08-25T10:22:14.360Z,6.8
2017-08-25T10:23:16.778Z,6.8
2017-08-25T10:24:19.270Z,6.8
2017-08-25T10:25:21.687Z,6.8
2017-08-25T10:26:24.106Z,6.8
2017-08-25T10:27:26.523Z,6.8
2017-08-25T10:28:29.035Z,6.8
2017-08-25T10:29:31.457Z,6.9
2017-08-25T10:30:33.875Z,6.9
2017-08-25T10:31:36.288Z,6.8
2017-08-25T10:32:38.792Z,6.9
2017-08-25T10:33:41.202Z,6.8
2017-08-25T10:34:43.620Z,6.8
2017-08-25T10:35:46.038Z,6.8
2017-08-25T10:36:48.452Z,6.8
2017-08-25T10:37:50.882Z,6.9
2017-08-25T10:38:53.318Z,6.8
2017-08-25T10:39:55.831Z,6.8
2017-08-25T10:40:58.246Z,6.8
2017-08-25T10:42:00.762Z,6.8
2017-08-25T10:43:03.175Z,6.8
2017-08-25T10:44:05.600Z,6.8
2017-08-25T10:45:08.127Z,6.8
2017-08-25T10:46:10.544Z,6.8
2017-08-25T10:47:13.640Z,6.8
2017-08-25T10:48:16.055Z,6.8
2017-08-25T10:49:18.480Z,6.8
2017-08-25T10:50:21.342Z,6.8
2017-08-25T10:51:23.757Z,6.8
2017-08-25T10:52:26.170Z,6.8
2017-08-25T10:53:28.598Z,6.8
2017-08-25T10:54:31.020Z,6.8
2017-08-25T10:55:34.296Z,6.8
2017-08-25T10:56:36.706Z,6.7
2017-08-25T10:57:39.459Z,6.8
2017-08-25T10:58:41.877Z,6.8
2017-08-25T10:59:44.300Z,6.8
2017-08-25T11:00:46.933Z,6.8
2017-08-25T11:01:49.339Z,6.8
2017-08-25T11:02:52.119Z,6.7
2017-08-25T11:03:54.528Z,6.7
2017-08-25T11:04:57.143Z,6.7
2017-08-25T11:05:59.551Z,6.7
2017-08-25T11:07:02.139Z,6.7
2017-08-25T11:08:04.890Z,6.7
2017-08-25T11:09:07.305Z,6.7
2017-08-25T11:10:09.721Z,6.7
2017-08-25T11:11:12.135Z,6.7
2017-08-25T11:12:14.542Z,6.7
2017-08-25T11:13:16.961Z,6.7
2017-08-25T11:14:19.374Z,6.7
2017-08-25T11:15:21.784Z,6.7
2017-08-25T11:16:24.197Z,6.7
2017-08-25T11:17:26.615Z,6.6
2017-08-25T11:18:29.238Z,6.6
2017-08-25T11:19:31.654Z,6.7
2017-08-25T11:20:34.235Z,6.7
2017-08-25T11:21:36.647Z,6.6
2017-08-25T11:22:39.060Z,6.6
2017-08-25T11:23:41.814Z,6.6
2017-08-25T11:24:44.225Z,6.7
2017-08-25T11:25:46.641Z,6.7
2017-08-25T11:26:49.055Z,6.6
2017-08-25T11:27:51.462Z,6.6
2017-08-25T11:28:53.876Z,6.6
2017-08-25T11:29:56.290Z,6.6
2017-08-25T11:30:58.707Z,6.6
2017-08-25T11:32:01.631Z,6.6
2017-08-25T11:33:11.938Z,6.7
2017-08-25T11:34:25.451Z,6.6
2017-08-25T11:35:39.891Z,6.7
2017-08-25T11:36:53.477Z,6.6
2017-08-25T11:38:10.091Z,6.7
2017-08-25T11:39:23.420Z,6.7
2017-08-25T11:40:36.830Z,6.7
2017-08-25T11:41:50.521Z,6.7
2017-08-25T11:43:00.632Z,6.7
2017-08-25T11:44:16.017Z,6.6
2017-08-25T11:45:27.310Z,6.6
2017-08-25T11:46:31.174Z,6.7
2017-08-25T11:47:33.623Z,6.7
2017-08-25T11:48:36.067Z,6.6
2017-08-25T11:49:38.492Z,6.6
2017-08-25T11:50:41.272Z,6.6
2017-08-25T11:51:43.686Z,6.6
2017-08-25T11:52:46.112Z,6.6
2017-08-25T11:53:48.529Z,6.6
2017-08-25T11:54:50.951Z,6.6
2017-08-25T11:55:53.703Z,6.6
2017-08-25T11:56:56.115Z,6.6
2017-08-25T11:57:58.533Z,6.6
2017-08-25T11:59:01.266Z,6.6
2017-08-25T12:00:03.882Z,6.6
2017-08-25T12:01:06.638Z,6.6
2017-08-25T12:02:09.063Z,6.6
2017-08-25T12:03:11.846Z,6.7
2017-08-25T12:04:15.165Z,6.7
2017-08-25T12:05:17.931Z,6.7
2017-08-25T12:06:20.360Z,6.7
2017-08-25T12:07:22.777Z,6.7
2017-08-25T12:08:25.195Z,6.7
2017-08-25T12:09:27.626Z,6.7
2017-08-25T12:10:30.566Z,6.7
2017-08-25T12:11:32.986Z,6.7
2017-08-25T12:12:35.627Z,6.7
2017-08-25T12:13:38.045Z,6.8
2017-08-25T12:14:40.468Z,6.8
2017-08-25T12:15:42.894Z,6.8
2017-08-25T12:16:45.474Z,6.8
2017-08-25T12:17:47.900Z,6.8
2017-08-25T12:18:50.322Z,6.8
2017-08-25T12:19:52.737Z,6.8
2017-08-25T12:20:55.162Z,6.9
2017-08-25T12:21:57.573Z,6.7
2017-08-25T12:23:00.275Z,6.8
2017-08-25T12:24:02.744Z,6.8
2017-08-25T12:25:05.164Z,6.7
2017-08-25T12:26:07.569Z,6.8
2017-08-25T12:27:09.982Z,6.8
2017-08-25T12:28:12.684Z,6.8
2017-08-25T12:29:15.880Z,6.8
2017-08-25T12:30:18.635Z,6.8
2017-08-25T12:31:21.052Z,6.8
2017-08-25T12:32:23.467Z,6.8
2017-08-25T12:33:25.890Z,6.9
2017-08-25T12:34:28.303Z,6.8
2017-08-25T12:35:30.849Z,6.8
2017-08-25T12:36:33.261Z,6.8
2017-08-25T12:37:35.679Z,6.8
2017-08-25T12:38:38.095Z,6.8
2017-08-25T12:39:40.514Z,6.8
2017-08-25T12:40:42.927Z,6.9
2017-08-25T12:41:45.478Z,6.9
2017-08-25T12:42:47.894Z,6.9
2017-08-25T12:43:50.311Z,6.9
2017-08-25T12:44:52.727Z,7
2017-08-25T12:45:55.150Z,6.8
2017-08-25T12:46:57.561Z,6.9
2017-08-25T12:48:00.066Z,6.9
2017-08-25T12:49:02.495Z,6.9
2017-08-25T12:50:04.922Z,6.9
2017-08-25T12:51:07.334Z,6.9
2017-08-25T12:52:09.751Z,6.8
2017-08-25T12:53:12.174Z,6.8
2017-08-25T12:54:14.584Z,6.8
2017-08-25T12:55:17.334Z,6.8
2017-08-25T12:56:19.772Z,6.8
2017-08-25T12:57:22.180Z,6.8
2017-08-25T12:58:24.603Z,6.9
2017-08-25T12:59:27.038Z,6.8
2017-08-25T13:00:29.447Z,6.8
2017-08-25T13:01:31.892Z,6.8
2017-08-25T13:02:34.312Z,6.8
2017-08-25T13:03:36.725Z,6.8
2017-08-25T13:04:39.144Z,6.8
2017-08-25T13:05:42.295Z,6.8
2017-08-25T13:06:45.360Z,6.8
2017-08-25T13:07:47.780Z,6.8
2017-08-25T13:08:50.199Z,6.8
2017-08-25T13:09:52.955Z,6.8
2017-08-25T13:10:55.386Z,6.8
2017-08-25T13:11:57.797Z,6.8
2017-08-25T13:13:00.422Z,6.8
2017-08-25T13:14:02.838Z,6.7
2017-08-25T13:15:05.256Z,6.8
2017-08-25T13:16:07.667Z,6.8
2017-08-25T13:17:10.093Z,6.8
2017-08-25T13:18:12.908Z,6.7
2017-08-25T13:19:16.136Z,6.8
2017-08-25T13:20:18.574Z,6.8
2017-08-25T13:21:20.984Z,6.7
2017-08-25T13:22:23.670Z,6.8
2017-08-25T13:23:26.068Z,6.8
2017-08-25T13:24:28.514Z,6.8
2017-08-25T13:25:30.933Z,6.8
2017-08-25T13:26:33.357Z,6.8
2017-08-25T13:27:35.786Z,6.8
2017-08-25T13:28:38.319Z,6.8
2017-08-25T13:29:40.740Z,6.8
2017-08-25T13:30:43.499Z,6.8
2017-08-25T13:31:45.925Z,6.8
2017-08-25T13:32:49.286Z,6.8
2017-08-25T13:33:53.069Z,6.8
2017-08-25T13:34:55.509Z,6.8
2017-08-25T13:35:57.926Z,6.8
2017-08-25T13:37:00.363Z,6.8
2017-08-25T13:38:02.783Z,6.8
2017-08-25T13:39:05.233Z,6.8
2017-08-25T13:40:07.637Z,6.8
2017-08-25T13:41:10.748Z,6.8
2017-08-25T13:42:13.192Z,6.9
2017-08-25T13:43:16.493Z,6.9
2017-08-25T13:44:18.921Z,6.9
2017-08-25T13:45:21.683Z,6.9
2017-08-25T13:46:24.557Z,6.9
2017-08-25T13:47:26.979Z,7
2017-08-25T13:48:29.401Z,6.9
2017-08-25T13:49:31.825Z,7
2017-08-25T13:50:34.249Z,7
2017-08-25T13:51:36.670Z,7
2017-08-25T13:52:39.096Z,6.9
2017-08-25T13:53:41.518Z,7
2017-08-25T13:54:44.053Z,7
2017-08-25T13:55:46.805Z,6.9
2017-08-25T13:56:49.218Z,7
2017-08-25T13:57:51.639Z,6.9
2017-08-25T13:58:54.055Z,7
2017-08-25T13:59:56.473Z,6.9
2017-08-25T14:00:58.903Z,6.9
2017-08-25T14:02:01.321Z,6.9
2017-08-25T14:03:03.742Z,6.9
2017-08-25T14:04:06.168Z,6.9
2017-08-25T14:05:08.582Z,6.9
2017-08-25T14:06:11.330Z,6.9
2017-08-25T14:07:13.758Z,7
2017-08-25T14:08:16.171Z,6.9
2017-08-25T14:09:18.591Z,6.9
2017-08-25T14:10:21.015Z,6.9
2017-08-25T14:11:23.434Z,6.9
2017-08-25T14:12:25.855Z,6.9
2017-08-25T14:13:28.392Z,6.9
2017-08-25T14:14:30.902Z,6.9
2017-08-25T14:15:33.325Z,6.9
2017-08-25T14:16:35.745Z,6.9
2017-08-25T14:17:38.162Z,6.9
2017-08-25T14:18:40.576Z,6.9
2017-08-25T14:19:42.997Z,6.9
2017-08-25T14:20:45.763Z,6.9
2017-08-25T14:21:48.185Z,6.9
2017-08-25T14:22:50.604Z,6.9
2017-08-25T14:23:53.021Z,6.9
2017-08-25T14:24:55.428Z,6.9